createdAt,value
2023-04-08T00:00:18.840Z,121.25
2023-04-08T00:01:18.839Z,123.94
2023-04-08T00:02:18.938Z,121.36
2023-04-08T00:03:19.080Z,121.38
2023-04-08T00:04:18.958Z,120.76
2023-04-08T00:05:18.918Z,121.64
2023-04-08T00:06:18.925Z,118.21
2023-04-08T00:07:18.944Z,120.55
2023-04-08T00:08:18.957Z,119.86
2023-04-08T00:09:18.968Z,118.33
2023-04-08T00:10:18.991Z,122.42
2023-04-08T00:11:19.068Z,119.61
2023-04-08T00:12:19.017Z,121.16
2023-04-08T00:13:19.048Z,119.08
2023-04-08T00:14:19.058Z,119.93
2023-04-08T00:15:19.091Z,120.22
2023-04-08T00:16:19.153Z,121.13
2023-04-08T00:17:19.142Z,120.88
2023-04-08T00:18:19.165Z,118.75
2023-04-08T00:19:19.178Z,120.70
2023-04-08T00:20:19.203Z,122.50
2023-04-08T00:21:19.216Z,121.11
2023-04-08T00:22:19.231Z,120.34
2023-04-08T00:23:19.256Z,124.00
2023-04-08T00:24:19.272Z,119.39
2023-04-08T00:25:19.297Z,122.93
2023-04-08T00:26:19.322Z,122.92
2023-04-08T00:27:19.328Z,116.94
2023-04-08T00:28:19.338Z,125.39
2023-04-08T00:29:19.352Z,119.96
2023-04-08T00:30:19.381Z,117.87
2023-04-08T00:31:19.519Z,123.12
2023-04-08T00:32:19.412Z,125.86
2023-04-08T00:33:19.441Z,122.12
2023-04-08T00:34:19.453Z,119.33
2023-04-08T00:35:19.496Z,121.93
2023-04-08T00:36:19.494Z,120.00
2023-04-08T00:37:19.506Z,121.58
2023-04-08T00:38:19.555Z,120.59
2023-04-08T00:39:19.551Z,121.41
2023-04-08T00:40:19.573Z,123.60
2023-04-08T00:41:19.585Z,122.21
2023-04-08T00:42:19.609Z,120.71
2023-04-08T00:43:19.627Z,121.42
2023-04-08T00:44:19.643Z,121.92
2023-04-08T00:45:19.664Z,121.38
2023-04-08T00:46:19.688Z,122.65
2023-04-08T00:47:19.740Z,118.12
2023-04-08T00:48:19.708Z,122.35
2023-04-08T00:49:19.731Z,120.38
2023-04-08T00:50:19.748Z,123.06
2023-04-08T00:51:19.777Z,122.76
2023-04-08T00:52:19.791Z,122.20
2023-04-08T00:53:19.796Z,121.79
2023-04-08T00:54:19.819Z,122.89
2023-04-08T00:55:19.835Z,121.75
2023-04-08T00:56:19.845Z,119.73
2023-04-08T00:57:19.872Z,121.87
2023-04-08T00:58:19.893Z,123.00
2023-04-08T00:59:19.896Z,120.63
2023-04-08T01:00:19.915Z,121.68
2023-04-08T01:01:19.976Z,119.64
2023-04-08T01:02:20.020Z,120.64
2023-04-08T01:03:20.220Z,119.98
2023-04-08T01:04:20.063Z,119.62
2023-04-08T01:05:20.002Z,122.87
2023-04-08T01:06:20.027Z,122.63
2023-04-08T01:07:20.030Z,124.10
2023-04-08T01:08:20.056Z,120.99
2023-04-08T01:09:20.077Z,121.63
2023-04-08T01:10:20.100Z,121.83
2023-04-08T01:11:20.113Z,121.48
2023-04-08T01:12:20.153Z,121.88
2023-04-08T01:13:20.163Z,122.21
2023-04-08T01:14:20.174Z,121.90
2023-04-08T01:15:20.205Z,125.46
2023-04-08T01:16:20.308Z,123.11
2023-04-08T01:17:20.305Z,120.99
2023-04-08T01:18:20.306Z,122.31
2023-04-08T01:19:20.296Z,124.03
2023-04-08T01:20:20.325Z,118.71
2023-04-08T01:21:20.349Z,122.64
2023-04-08T01:22:20.356Z,122.89
2023-04-08T01:23:20.367Z,120.26
2023-04-08T01:24:20.401Z,120.28
2023-04-08T01:25:20.415Z,122.75
2023-04-08T01:26:20.433Z,126.95
2023-04-08T01:27:20.460Z,121.29
2023-04-08T01:28:20.494Z,123.27
2023-04-08T01:29:20.498Z,121.68
2023-04-08T01:30:20.531Z,121.24
2023-04-08T01:31:20.549Z,122.58
2023-04-08T01:32:20.571Z,121.71
2023-04-08T01:33:20.590Z,124.68
2023-04-08T01:34:20.601Z,122.66
2023-04-08T01:35:20.668Z,121.26
2023-04-08T01:36:20.668Z,126.99
2023-04-08T01:37:20.678Z,126.99
2023-04-08T01:38:20.692Z,124.29
2023-04-08T01:39:20.718Z,123.23
2023-04-08T01:40:20.741Z,121.34
2023-04-08T01:41:20.778Z,125.21
2023-04-08T01:42:20.796Z,125.32
2023-04-08T01:43:20.821Z,124.25
2023-04-08T01:44:20.850Z,122.72
2023-04-08T01:45:20.867Z,121.19
2023-04-08T01:46:20.920Z,123.82
2023-04-08T01:47:20.939Z,122.13
2023-04-08T01:48:20.959Z,124.37
2023-04-08T01:49:21.040Z,125.06
2023-04-08T01:50:20.973Z,124.31
2023-04-08T01:51:21.023Z,123.81
2023-04-08T01:52:21.012Z,124.81
2023-04-08T01:53:21.049Z,121.04
2023-04-08T01:54:21.070Z,123.86
2023-04-08T01:55:21.085Z,123.09
2023-04-08T01:56:21.102Z,121.98
2023-04-08T01:57:21.122Z,123.89
2023-04-08T01:58:21.166Z,123.60
2023-04-08T01:59:21.191Z,124.24
2023-04-08T02:00:21.217Z,127.02
2023-04-08T02:01:21.288Z,124.00
2023-04-08T02:02:21.366Z,124.48
2023-04-08T02:03:21.752Z,121.76
2023-04-08T02:04:21.478Z,124.61
2023-04-08T02:05:21.356Z,126.15
2023-04-08T02:06:21.360Z,122.60
2023-04-08T02:07:21.410Z,120.57
2023-04-08T02:08:21.420Z,122.47
2023-04-08T02:09:21.447Z,122.27
2023-04-08T02:10:21.472Z,122.48
2023-04-08T02:11:21.497Z,123.59
2023-04-08T02:12:21.533Z,123.36
2023-04-08T02:13:21.542Z,127.22
2023-04-08T02:14:21.567Z,123.36
2023-04-08T02:15:21.591Z,124.55
2023-04-08T02:16:21.676Z,126.05
2023-04-08T02:17:21.638Z,125.97
2023-04-08T02:18:21.683Z,124.43
2023-04-08T02:19:21.703Z,123.37
2023-04-08T02:20:21.727Z,123.74
2023-04-08T02:21:21.747Z,121.89
2023-04-08T02:22:21.772Z,126.03
2023-04-08T02:23:21.817Z,123.29
2023-04-08T02:24:21.829Z,122.21
2023-04-08T02:25:21.864Z,124.69
2023-04-08T02:26:21.896Z,120.89
2023-04-08T02:27:21.919Z,126.47
2023-04-08T02:28:21.943Z,126.01
2023-04-08T02:29:21.976Z,125.33
2023-04-08T02:30:22.004Z,125.58
2023-04-08T02:31:22.058Z,121.01
2023-04-08T02:32:22.056Z,125.15
2023-04-08T02:33:22.127Z,124.22
2023-04-08T02:34:22.137Z,124.58
2023-04-08T02:35:22.149Z,124.09
2023-04-08T02:36:22.184Z,126.77
2023-04-08T02:37:22.212Z,125.45
2023-04-08T02:38:22.231Z,126.36
2023-04-08T02:39:22.255Z,123.91
2023-04-08T02:40:22.289Z,125.98
2023-04-08T02:41:22.318Z,125.05
2023-04-08T02:42:22.359Z,124.64
2023-04-08T02:43:22.390Z,122.64
2023-04-08T02:44:22.406Z,123.18
2023-04-08T02:45:22.438Z,126.22
2023-04-08T02:46:22.566Z,127.54
2023-04-08T02:47:22.537Z,123.81
2023-04-08T02:48:22.525Z,128.22
2023-04-08T02:49:22.560Z,124.36
2023-04-08T02:50:22.588Z,123.57
2023-04-08T02:51:22.615Z,122.80
2023-04-08T02:52:22.651Z,124.74
2023-04-08T02:53:22.668Z,127.26
2023-04-08T02:54:22.698Z,123.14
2023-04-08T02:55:22.719Z,123.43
2023-04-08T02:56:22.753Z,126.01
2023-04-08T02:57:22.790Z,127.30
2023-04-08T02:58:22.797Z,127.04
2023-04-08T02:59:22.831Z,123.24
2023-04-08T03:00:22.853Z,127.20
2023-04-08T03:01:22.938Z,124.36
2023-04-08T03:02:23.056Z,125.72
2023-04-08T03:03:23.098Z,125.34
2023-04-08T03:04:22.975Z,125.25
2023-04-08T03:05:23.011Z,124.38
2023-04-08T03:06:23.037Z,125.71
2023-04-08T03:07:23.057Z,123.91
2023-04-08T03:08:23.097Z,122.19
2023-04-08T03:09:23.122Z,121.61
2023-04-08T03:10:23.154Z,123.61
2023-04-08T03:11:23.190Z,123.67
2023-04-08T03:12:23.237Z,124.07
2023-04-08T03:13:23.255Z,125.67
2023-04-08T03:14:23.295Z,121.12
2023-04-08T03:15:23.327Z,125.19
2023-04-08T03:16:23.402Z,124.07
2023-04-08T03:17:23.411Z,121.40
2023-04-08T03:18:23.426Z,124.18
2023-04-08T03:19:23.452Z,123.87
2023-04-08T03:20:23.486Z,126.90
2023-04-08T03:21:23.540Z,123.32
2023-04-08T03:22:23.537Z,127.76
2023-04-08T03:23:23.571Z,124.64
2023-04-08T03:24:23.598Z,126.74
2023-04-08T03:25:23.636Z,126.38
2023-04-08T03:26:23.683Z,126.68
2023-04-08T03:27:23.711Z,127.74
2023-04-08T03:28:23.735Z,123.96
2023-04-08T03:29:23.778Z,126.63
2023-04-08T03:30:23.802Z,122.92
2023-04-08T03:31:23.902Z,122.75
2023-04-08T03:32:23.905Z,124.04
2023-04-08T03:33:23.920Z,127.62
2023-04-08T03:34:23.935Z,122.34
2023-04-08T03:35:24.051Z,126.58
2023-04-08T03:36:24.019Z,123.37
2023-04-08T03:37:24.033Z,129.12
2023-04-08T03:38:24.075Z,123.12
2023-04-08T03:39:24.130Z,126.52
2023-04-08T03:40:24.190Z,126.29
2023-04-08T03:41:24.180Z,126.71
2023-04-08T03:42:24.228Z,126.82
2023-04-08T03:43:24.253Z,126.02
2023-04-08T03:44:24.307Z,124.95
2023-04-08T03:45:24.342Z,122.99
2023-04-08T03:46:24.456Z,126.00
2023-04-08T03:47:24.492Z,125.63
2023-04-08T03:48:24.443Z,126.18
2023-04-08T03:49:24.468Z,124.90
2023-04-08T03:50:24.504Z,123.72
2023-04-08T03:51:24.532Z,125.45
2023-04-08T03:52:24.590Z,125.76
2023-04-08T03:53:24.600Z,125.12
2023-04-08T03:54:24.632Z,126.91
2023-04-08T03:55:24.665Z,126.12
2023-04-08T03:56:24.700Z,125.14
2023-04-08T03:57:24.725Z,122.84
2023-04-08T03:58:24.770Z,122.77
2023-04-08T03:59:24.806Z,128.90
2023-04-08T04:00:24.824Z,124.10
2023-04-08T04:01:24.875Z,125.10
2023-04-08T04:02:25.034Z,124.33
2023-04-08T04:03:25.046Z,124.48
2023-04-08T04:04:25.013Z,127.20
2023-04-08T04:05:24.978Z,129.00
2023-04-08T04:06:25.001Z,125.10
2023-04-08T04:07:25.034Z,123.82
2023-04-08T04:08:25.064Z,128.63
2023-04-08T04:09:25.112Z,123.80
2023-04-08T04:10:25.132Z,125.58
2023-04-08T04:11:25.171Z,125.88
2023-04-08T04:12:25.216Z,127.57
2023-04-08T04:13:25.232Z,126.53
2023-04-08T04:14:25.267Z,126.74
2023-04-08T04:15:25.379Z,124.15
2023-04-08T04:16:25.459Z,122.78
2023-04-08T04:17:25.417Z,125.56
2023-04-08T04:18:25.469Z,129.12
2023-04-08T04:19:25.467Z,121.48
2023-04-08T04:20:25.516Z,128.25
2023-04-08T04:21:25.536Z,128.34
2023-04-08T04:22:25.575Z,125.11
2023-04-08T04:23:25.621Z,127.07
2023-04-08T04:24:25.652Z,125.83
2023-04-08T04:25:25.711Z,124.71
2023-04-08T04:26:25.729Z,127.27
2023-04-08T04:27:25.755Z,123.42
2023-04-08T04:28:25.785Z,127.74
2023-04-08T04:29:25.823Z,125.69
2023-04-08T04:30:25.849Z,124.62
2023-04-08T04:31:25.915Z,121.76
2023-04-08T04:32:25.955Z,126.58
2023-04-08T04:33:25.973Z,127.58
2023-04-08T04:34:25.999Z,128.16
2023-04-08T04:35:26.072Z,128.30
2023-04-08T04:36:26.058Z,126.58
2023-04-08T04:37:26.076Z,124.86
2023-04-08T04:38:26.088Z,124.08
2023-04-08T04:39:26.111Z,125.15
2023-04-08T04:40:26.149Z,127.05
2023-04-08T04:41:26.143Z,125.29
2023-04-08T04:42:26.158Z,126.07
2023-04-08T04:43:26.173Z,126.65
2023-04-08T04:44:26.190Z,124.66
2023-04-08T04:45:26.220Z,124.77
2023-04-08T04:46:26.296Z,125.98
2023-04-08T04:47:26.304Z,123.28
2023-04-08T04:48:26.264Z,124.40
2023-04-08T04:49:26.267Z,123.64
2023-04-08T04:50:26.286Z,123.87
2023-04-08T04:51:26.296Z,125.19
2023-04-08T04:52:26.335Z,126.98
2023-04-08T04:53:26.346Z,125.91
2023-04-08T04:54:26.360Z,122.47
2023-04-08T04:55:26.387Z,123.42
2023-04-08T04:56:26.416Z,124.30
2023-04-08T04:57:26.408Z,124.35
2023-04-08T04:58:26.437Z,125.13
2023-04-08T04:59:26.455Z,123.97
2023-04-08T05:00:26.472Z,125.07
2023-04-08T05:01:26.557Z,125.71
2023-04-08T05:02:26.675Z,126.58
2023-04-08T05:03:26.551Z,127.31
2023-04-08T05:04:26.563Z,125.85
2023-04-08T05:05:26.618Z,124.53
2023-04-08T05:06:26.599Z,125.69
2023-04-08T05:07:26.625Z,122.39
2023-04-08T05:08:28.127Z,126.75
2023-04-08T05:09:26.670Z,122.47
2023-04-08T05:10:26.693Z,125.34
2023-04-08T05:11:26.711Z,123.14
2023-04-08T05:12:26.731Z,122.88
2023-04-08T05:13:26.749Z,124.11
2023-04-08T05:14:26.772Z,128.04
2023-04-08T05:15:26.803Z,122.49
2023-04-08T05:16:26.830Z,127.19
2023-04-08T05:17:26.856Z,125.94
2023-04-08T05:18:26.848Z,124.04
2023-04-08T05:19:26.869Z,125.93
2023-04-08T05:20:26.883Z,127.49
2023-04-08T05:21:26.916Z,125.89
2023-04-08T05:22:26.926Z,126.70
2023-04-08T05:23:26.953Z,121.61
2023-04-08T05:24:26.982Z,124.66
2023-04-08T05:25:26.997Z,124.28
2023-04-08T05:26:27.010Z,122.90
2023-04-08T05:27:27.022Z,127.02
2023-04-08T05:28:27.041Z,124.20
2023-04-08T05:29:27.065Z,124.86
2023-04-08T05:30:27.098Z,126.50
2023-04-08T05:31:27.207Z,125.93
2023-04-08T05:32:27.162Z,125.11
2023-04-08T05:33:27.144Z,123.57
2023-04-08T05:34:27.151Z,126.10
2023-04-08T05:35:27.222Z,124.59
2023-04-08T05:36:27.190Z,127.94
2023-04-08T05:37:27.219Z,123.90
2023-04-08T05:38:27.252Z,124.65
2023-04-08T05:39:27.252Z,123.68
2023-04-08T05:40:27.272Z,119.12
2023-04-08T05:41:27.285Z,123.11
2023-04-08T05:42:27.318Z,122.23
2023-04-08T05:43:27.325Z,124.98
2023-04-08T05:44:27.347Z,123.43
2023-04-08T05:45:27.371Z,123.03
2023-04-08T05:46:27.419Z,122.48
2023-04-08T05:47:27.478Z,125.24
2023-04-08T05:48:27.413Z,126.44
2023-04-08T05:49:27.476Z,128.20
2023-04-08T05:50:27.450Z,123.77
2023-04-08T05:51:27.487Z,123.63
2023-04-08T05:52:27.497Z,124.38
2023-04-08T05:53:27.522Z,122.21
2023-04-08T05:54:27.541Z,122.43
2023-04-08T05:55:27.557Z,122.92
2023-04-08T05:56:27.594Z,124.26
2023-04-08T05:57:27.592Z,124.43
2023-04-08T05:58:27.618Z,123.35
2023-04-08T05:59:27.636Z,121.45
2023-04-08T06:00:27.678Z,118.36
2023-04-08T06:01:27.668Z,121.87
2023-04-08T06:02:27.875Z,120.97
2023-04-08T06:03:27.887Z,123.65
2023-04-08T06:04:27.861Z,120.58
2023-04-08T06:05:27.760Z,122.56
2023-04-08T06:06:27.793Z,118.17
2023-04-08T06:07:27.839Z,120.90
2023-04-08T06:08:27.877Z,118.54
2023-04-08T06:09:27.978Z,120.46
2023-04-08T06:10:28.108Z,122.46
2023-04-08T06:11:27.988Z,121.20
2023-04-08T06:12:28.029Z,120.47
2023-04-08T06:13:28.084Z,118.70
2023-04-08T06:14:28.111Z,120.02
2023-04-08T06:15:28.155Z,118.68
2023-04-08T06:16:28.239Z,120.77
2023-04-08T06:17:28.248Z,121.13
2023-04-08T06:18:28.258Z,119.32
2023-04-08T06:19:28.299Z,120.43
2023-04-08T06:20:28.334Z,118.37
2023-04-08T06:21:28.372Z,121.25
2023-04-08T06:22:28.419Z,120.95
2023-04-08T06:23:28.453Z,121.19
2023-04-08T06:24:28.488Z,117.95
2023-04-08T06:25:28.520Z,118.35
2023-04-08T06:26:28.574Z,118.32
2023-04-08T06:27:28.604Z,118.96
2023-04-08T06:28:28.653Z,119.06
2023-04-08T06:29:28.695Z,118.17
2023-04-08T06:30:28.753Z,116.65
2023-04-08T06:31:28.868Z,115.76
2023-04-08T06:32:28.850Z,118.50
2023-04-08T06:33:28.869Z,116.22
2023-04-08T06:34:28.890Z,118.09
2023-04-08T06:35:28.944Z,117.38
2023-04-08T06:36:28.975Z,118.59
2023-04-08T06:37:29.005Z,119.87
2023-04-08T06:38:29.047Z,117.43
2023-04-08T06:39:29.088Z,118.33
2023-04-08T06:40:29.141Z,121.10
2023-04-08T06:41:29.166Z,115.60
2023-04-08T06:42:29.202Z,115.24
2023-04-08T06:43:29.253Z,118.86
2023-04-08T06:44:29.285Z,116.51
2023-04-08T06:45:29.310Z,116.91
2023-04-08T06:46:29.572Z,118.55
2023-04-08T06:47:29.412Z,117.00
2023-04-08T06:48:29.438Z,117.65
2023-04-08T06:49:29.477Z,116.53
2023-04-08T06:50:29.516Z,115.36
2023-04-08T06:51:29.559Z,118.05
2023-04-08T06:52:29.599Z,118.17
2023-04-08T06:53:29.635Z,116.46
2023-04-08T06:54:29.671Z,117.10
2023-04-08T06:55:29.716Z,115.72
2023-04-08T06:56:29.759Z,115.57
2023-04-08T06:57:29.794Z,115.32
2023-04-08T06:58:29.846Z,117.97
2023-04-08T06:59:29.874Z,121.20
2023-04-08T07:00:29.916Z,117.92
2023-04-08T07:01:30.064Z,117.33
2023-04-08T07:02:30.063Z,116.21
2023-04-08T07:03:30.115Z,116.32
2023-04-08T07:04:30.077Z,114.48
2023-04-08T07:05:30.117Z,112.90
2023-04-08T07:06:30.171Z,115.16
2023-04-08T07:07:30.199Z,114.53
2023-04-08T07:08:30.247Z,113.56
2023-04-08T07:09:30.291Z,109.50
2023-04-08T07:10:30.333Z,114.15
2023-04-08T07:11:30.376Z,116.32
2023-04-08T07:12:30.485Z,115.76
2023-04-08T07:13:30.458Z,115.77
2023-04-08T07:14:30.498Z,113.14
2023-04-08T07:15:30.555Z,114.94
2023-04-08T07:16:30.613Z,114.21
2023-04-08T07:17:30.677Z,115.59
2023-04-08T07:18:30.679Z,114.63
2023-04-08T07:19:30.705Z,114.44
2023-04-08T07:20:32.255Z,113.49
2023-04-08T07:21:30.782Z,114.79
2023-04-08T07:22:30.823Z,112.30
2023-04-08T07:23:30.866Z,114.42
2023-04-08T07:24:30.923Z,118.48
2023-04-08T07:25:30.948Z,116.40
2023-04-08T07:26:30.989Z,115.83
2023-04-08T07:27:31.037Z,117.84
2023-04-08T07:28:31.080Z,115.34
2023-04-08T07:29:31.119Z,114.77
2023-04-08T07:30:31.163Z,117.41
2023-04-08T07:31:31.250Z,118.60
2023-04-08T07:32:31.337Z,119.48
2023-04-08T07:33:31.288Z,118.18
2023-04-08T07:34:32.215Z,116.85
2023-04-08T07:35:31.408Z,117.47
2023-04-08T07:36:31.413Z,115.94
2023-04-08T07:37:31.459Z,113.33
2023-04-08T07:38:31.497Z,111.70
2023-04-08T07:39:31.555Z,113.96
2023-04-08T07:40:31.575Z,117.56
2023-04-08T07:41:31.611Z,115.70
2023-04-08T07:42:31.641Z,117.53
2023-04-08T07:43:31.701Z,114.60
2023-04-08T07:44:31.734Z,113.65
2023-04-08T07:45:31.790Z,107.69
2023-04-08T07:46:31.876Z,113.01
2023-04-08T07:47:31.860Z,111.83
2023-04-08T07:48:31.894Z,112.62
2023-04-08T07:49:31.951Z,111.21
2023-04-08T07:50:31.990Z,111.79
2023-04-08T07:51:32.029Z,115.44
2023-04-08T07:52:32.070Z,115.19
2023-04-08T07:53:32.133Z,110.73
2023-04-08T07:54:32.163Z,112.91
2023-04-08T07:55:32.208Z,116.58
2023-04-08T07:56:32.253Z,114.86
2023-04-08T07:57:32.285Z,116.21
2023-04-08T07:58:32.346Z,116.29
2023-04-08T07:59:32.386Z,115.09
2023-04-08T08:00:32.434Z,111.54
2023-04-08T08:01:32.488Z,114.37
2023-04-08T08:02:32.544Z,116.88
2023-04-08T08:03:33.852Z,114.01
2023-04-08T08:04:32.670Z,113.44
2023-04-08T08:05:32.556Z,111.54
2023-04-08T08:06:32.566Z,111.47
2023-04-08T08:07:32.595Z,109.34
2023-04-08T08:08:32.626Z,112.02
2023-04-08T08:09:32.655Z,112.11
2023-04-08T08:10:32.664Z,116.34
2023-04-08T08:11:32.682Z,115.36
2023-04-08T08:12:32.708Z,115.49
2023-04-08T08:13:32.724Z,116.28
2023-04-08T08:14:32.744Z,110.58
2023-04-08T08:15:32.772Z,112.82
2023-04-08T08:16:32.830Z,116.85
2023-04-08T08:17:32.809Z,118.50
2023-04-08T08:18:32.825Z,117.91
2023-04-08T08:19:32.847Z,119.02
2023-04-08T08:20:32.869Z,118.73
2023-04-08T08:21:32.879Z,117.35
2023-04-08T08:22:32.912Z,118.76
2023-04-08T08:23:32.933Z,121.80
2023-04-08T08:24:32.963Z,121.97
2023-04-08T08:25:32.981Z,121.01
2023-04-08T08:26:32.992Z,119.57
2023-04-08T08:27:33.021Z,121.84
2023-04-08T08:28:33.037Z,120.29
2023-04-08T08:29:33.061Z,121.16
2023-04-08T08:30:34.010Z,118.67
2023-04-08T08:31:33.117Z,118.05
2023-04-08T08:32:33.099Z,120.48
2023-04-08T08:33:33.113Z,121.14
2023-04-08T08:34:33.123Z,114.79
2023-04-08T08:35:33.153Z,118.26
2023-04-08T08:36:34.544Z,118.95
2023-04-08T08:37:33.132Z,121.87
2023-04-08T08:38:33.168Z,117.31
2023-04-08T08:39:33.167Z,121.17
2023-04-08T08:40:33.178Z,118.52
2023-04-08T08:41:33.186Z,115.78
2023-04-08T08:42:34.325Z,118.85
2023-04-08T08:43:33.214Z,115.59
2023-04-08T08:44:33.214Z,118.74
2023-04-08T08:45:33.244Z,119.25
2023-04-08T08:46:33.299Z,118.57
2023-04-08T08:47:33.287Z,114.48
2023-04-08T08:48:33.280Z,116.04
2023-04-08T08:49:33.294Z,117.68
2023-04-08T08:50:33.282Z,117.08
2023-04-08T08:51:33.303Z,119.42
2023-04-08T08:52:33.317Z,117.61
2023-04-08T08:53:35.711Z,118.69
2023-04-08T08:54:33.457Z,114.96
2023-04-08T08:55:50.821Z,120.73
2023-04-08T08:56:34.562Z,120.76
2023-04-08T08:57:33.464Z,118.46
2023-04-08T08:58:33.485Z,121.57
2023-04-08T08:59:33.466Z,119.25
2023-04-08T09:00:34.565Z,122.10
2023-04-08T09:01:33.698Z,120.53
2023-04-08T09:02:33.738Z,122.40
2023-04-08T09:03:33.564Z,120.32
2023-04-08T09:04:33.673Z,122.39
2023-04-08T09:05:33.547Z,123.28
2023-04-08T09:06:33.456Z,125.92
2023-04-08T09:07:33.458Z,118.36
2023-04-08T09:08:33.453Z,122.70
2023-04-08T09:09:33.458Z,122.99
2023-04-08T09:10:33.454Z,125.11
2023-04-08T09:11:33.462Z,124.13
2023-04-08T09:12:33.473Z,124.73
2023-04-08T09:13:33.462Z,124.69
2023-04-08T09:14:33.459Z,121.98
2023-04-08T09:15:33.474Z,122.56
2023-04-08T09:16:33.572Z,124.13
2023-04-08T09:17:33.527Z,125.37
2023-04-08T09:18:33.496Z,122.61
2023-04-08T09:19:33.497Z,124.72
2023-04-08T09:20:33.501Z,127.08
2023-04-08T09:21:33.497Z,126.49
2023-04-08T09:22:33.505Z,126.21
2023-04-08T09:23:33.498Z,126.38
2023-04-08T09:24:33.502Z,123.67
2023-04-08T09:25:33.531Z,124.46
2023-04-08T09:26:33.505Z,124.76
2023-04-08T09:27:33.514Z,124.48
2023-04-08T09:28:33.502Z,121.74
2023-04-08T09:29:35.757Z,119.78
2023-04-08T09:30:33.529Z,120.06
2023-04-08T09:31:33.583Z,120.31
2023-04-08T09:32:33.533Z,120.62
2023-04-08T09:33:33.509Z,121.75
2023-04-08T09:34:33.506Z,123.87
2023-04-08T09:35:33.557Z,121.42
2023-04-08T09:36:33.508Z,121.47
2023-04-08T09:37:33.516Z,120.15
2023-04-08T09:38:33.503Z,117.06
2023-04-08T09:39:33.509Z,117.40
2023-04-08T09:40:33.504Z,118.78
2023-04-08T09:41:33.769Z,116.39
2023-04-08T09:42:33.505Z,119.75
2023-04-08T09:43:33.496Z,114.56
2023-04-08T09:44:33.496Z,118.81
2023-04-08T09:45:33.514Z,113.57
2023-04-08T09:46:33.484Z,117.60
2023-04-08T09:47:33.498Z,115.43
2023-04-08T09:48:33.504Z,117.94
2023-04-08T09:49:33.495Z,116.81
2023-04-08T09:50:33.482Z,114.44
2023-04-08T09:51:33.478Z,114.64
2023-04-08T09:52:33.498Z,114.09
2023-04-08T09:53:33.474Z,118.01
2023-04-08T09:54:33.478Z,114.46
2023-04-08T09:55:33.462Z,112.79
2023-04-08T09:56:33.467Z,115.79
2023-04-08T09:57:33.533Z,115.50
2023-04-08T09:58:33.461Z,115.93
2023-04-08T09:59:33.463Z,114.52
2023-04-08T10:00:33.458Z,114.34
2023-04-08T10:01:33.517Z,113.76
2023-04-08T10:02:33.620Z,114.17
2023-04-08T10:03:33.609Z,116.91
2023-04-08T10:04:33.580Z,112.37
2023-04-08T10:05:33.442Z,117.24
2023-04-08T10:06:33.441Z,113.80
2023-04-08T10:07:33.429Z,114.38
2023-04-08T10:08:33.428Z,115.67
2023-04-08T10:09:33.434Z,116.36
2023-04-08T10:10:33.460Z,116.54
2023-04-08T10:11:33.504Z,118.25
2023-04-08T10:12:33.542Z,115.76
2023-04-08T10:13:33.580Z,116.17
2023-04-08T10:14:33.630Z,120.14
2023-04-08T10:15:33.681Z,118.48
2023-04-08T10:16:33.764Z,116.42
2023-04-08T10:17:33.779Z,117.25
2023-04-08T10:18:33.813Z,118.68
2023-04-08T10:19:33.850Z,118.00
2023-04-08T10:20:33.914Z,119.86
2023-04-08T10:21:33.957Z,115.57
2023-04-08T10:22:33.984Z,115.25
2023-04-08T10:23:34.045Z,118.36
2023-04-08T10:24:34.093Z,117.90
2023-04-08T10:25:34.172Z,116.87
2023-04-08T10:26:34.191Z,115.56
2023-04-08T10:27:34.233Z,118.11
2023-04-08T10:28:34.281Z,116.72
2023-04-08T10:29:34.336Z,115.18
2023-04-08T10:30:34.454Z,118.76
2023-04-08T10:31:34.543Z,115.45
2023-04-08T10:32:34.562Z,116.31
2023-04-08T10:33:34.767Z,114.32
2023-04-08T10:34:34.598Z,116.21
2023-04-08T10:35:34.651Z,114.38
2023-04-08T10:36:34.680Z,113.97
2023-04-08T10:37:34.739Z,112.65
2023-04-08T10:38:34.799Z,112.95
2023-04-08T10:39:36.328Z,115.21
2023-04-08T10:40:34.834Z,114.91
2023-04-08T10:41:34.836Z,109.64
2023-04-08T10:42:34.836Z,114.52
2023-04-08T10:43:34.836Z,112.09
2023-04-08T10:44:34.836Z,114.36
2023-04-08T10:45:34.821Z,111.53
2023-04-08T10:46:34.891Z,108.80
2023-04-08T10:47:34.898Z,107.87
2023-04-08T10:48:34.803Z,108.68
2023-04-08T10:49:34.855Z,111.35
2023-04-08T10:50:34.796Z,109.07
2023-04-08T10:51:34.821Z,109.55
2023-04-08T10:52:34.797Z,108.97
2023-04-08T10:53:34.805Z,109.93
2023-04-08T10:54:34.790Z,109.67
2023-04-08T10:55:34.780Z,111.44
2023-04-08T10:56:34.787Z,107.70
2023-04-08T10:57:34.777Z,107.42
2023-04-08T10:58:34.801Z,107.15
2023-04-08T10:59:34.846Z,112.19
2023-04-08T11:00:34.751Z,110.15
2023-04-08T11:01:35.048Z,109.54
2023-04-08T11:02:34.950Z,109.36
2023-04-08T11:03:34.995Z,112.60
2023-04-08T11:04:34.911Z,110.93
2023-04-08T11:05:34.884Z,107.76
2023-04-08T11:06:34.749Z,109.14
2023-04-08T11:07:34.778Z,110.23
2023-04-08T11:08:34.754Z,109.52
2023-04-08T11:09:34.758Z,107.47
2023-04-08T11:10:34.745Z,107.87
2023-04-08T11:11:34.773Z,104.78
2023-04-08T11:12:34.735Z,109.39
2023-04-08T11:13:34.773Z,106.32
2023-04-08T11:14:34.783Z,105.04
2023-04-08T11:15:34.925Z,105.78
2023-04-08T11:16:34.730Z,108.19
2023-04-08T11:17:34.858Z,106.42
2023-04-08T11:18:34.787Z,105.07
2023-04-08T11:19:34.806Z,104.68
2023-04-08T11:20:34.873Z,107.76
2023-04-08T11:21:34.938Z,107.88
2023-04-08T11:22:35.004Z,104.03
2023-04-08T11:23:35.056Z,102.27
2023-04-08T11:24:35.114Z,107.84
2023-04-08T11:25:35.152Z,102.66
2023-04-08T11:26:35.198Z,104.64
2023-04-08T11:27:35.246Z,103.90
2023-04-08T11:28:35.321Z,106.30
2023-04-08T11:29:35.348Z,103.97
2023-04-08T11:30:35.400Z,104.92
2023-04-08T11:31:35.489Z,104.64
2023-04-08T11:32:35.540Z,105.43
2023-04-08T11:33:35.572Z,106.64
2023-04-08T11:34:35.638Z,107.12
2023-04-08T11:35:35.689Z,103.83
2023-04-08T11:36:35.721Z,104.57
2023-04-08T11:37:35.780Z,105.66
2023-04-08T11:38:35.847Z,106.23
2023-04-08T11:39:35.887Z,106.53
2023-04-08T11:40:35.949Z,103.81
2023-04-08T11:41:36.005Z,109.89
2023-04-08T11:42:36.056Z,104.60
2023-04-08T11:43:36.120Z,107.77
2023-04-08T11:44:36.150Z,107.40
2023-04-08T11:45:36.189Z,111.16
2023-04-08T11:46:36.294Z,111.44
2023-04-08T11:47:36.289Z,107.38
2023-04-08T11:48:36.352Z,112.14
2023-04-08T11:49:36.389Z,107.23
2023-04-08T11:50:36.448Z,110.83
2023-04-08T11:51:36.508Z,111.68
2023-04-08T11:52:36.547Z,110.62
2023-04-08T11:53:36.600Z,110.17
2023-04-08T11:54:36.634Z,108.66
2023-04-08T11:55:36.670Z,111.20
2023-04-08T11:56:36.720Z,109.38
2023-04-08T11:57:36.740Z,109.69
2023-04-08T11:58:36.777Z,110.63
2023-04-08T11:59:36.821Z,106.35
2023-04-08T12:00:36.862Z,111.40
2023-04-08T12:01:36.913Z,111.67
2023-04-08T12:02:37.073Z,112.58
2023-04-08T12:03:37.140Z,113.83
2023-04-08T12:04:37.061Z,109.06
2023-04-08T12:05:37.098Z,114.26
2023-04-08T12:06:37.114Z,113.55
2023-04-08T12:07:37.144Z,116.54
2023-04-08T12:08:37.175Z,113.19
2023-04-08T12:09:37.199Z,112.71
2023-04-08T12:10:37.253Z,114.64
2023-04-08T12:11:37.282Z,114.62
2023-04-08T12:12:37.310Z,113.84
2023-04-08T12:13:37.338Z,117.79
2023-04-08T12:14:37.380Z,113.82
2023-04-08T12:15:37.430Z,114.36
2023-04-08T12:16:37.524Z,114.62
2023-04-08T12:17:37.525Z,116.68
2023-04-08T12:18:37.554Z,117.58
2023-04-08T12:19:38.575Z,117.48
2023-04-08T12:20:37.628Z,119.10
2023-04-08T12:21:37.670Z,120.98
2023-04-08T12:22:37.732Z,112.30
2023-04-08T12:23:37.746Z,118.31
2023-04-08T12:24:37.757Z,121.63
2023-04-08T12:25:37.810Z,117.44
2023-04-08T12:26:37.818Z,117.76
2023-04-08T12:27:37.833Z,115.05
2023-04-08T12:28:37.859Z,120.33